Time;durP1;ratioP1;P1;durP2;ratioP2;P2;SDS_P1;SDS_P2;PMS_P1;PMS_P2;Temp;Humidity;BMP_temperature;BMP_pressure;BME280_temperature;BME280_humidity;BME280_pressure;Samples;Min_cycle;Max_cycle;Signal;HPM_P1;HPM_P2
2021/12/09 00:01:28;;;;;;;15.20;5.78;;;;;;;;;;5076292;28;20051;-68
2021/12/09 00:03:57;;;;;;;11.50;4.80;;;;;;;;;;5073927;28;20111;-68
2021/12/09 00:06:27;;;;;;;9.43;4.63;;;;;;;;;;5073980;28;20044;-68
2021/12/09 00:08:59;;;;;;;8.30;4.05;;;;;;;;;;5073413;28;20056;-68
2021/12/09 00:11:27;;;;;;;10.00;5.25;;;;;;;;;;5073360;28;20185;-68
2021/12/09 00:13:54;;;;;;;10.77;4.80;;;;;;;;;;5072960;28;20067;-68
2021/12/09 00:16:20;;;;;;;11.80;4.70;;;;;;;;;;5075075;28;20052;-67
2021/12/09 00:18:47;;;;;;;10.20;5.10;;;;;;;;;;5074154;28;20113;-67
2021/12/09 00:21:14;;;;;;;12.98;5.22;;;;;;;;;;5073873;28;20070;-68
2021/12/09 00:23:41;;;;;;;13.15;4.78;;;;;;;;;;5075368;28;20052;-69
2021/12/09 00:26:07;;;;;;;14.23;5.07;;;;;;;;;;5074909;28;20055;-68
2021/12/09 00:28:33;;;;;;;9.07;3.88;;;;;;;;;;5073371;28;20083;-69
2021/12/09 00:31:01;;;;;;;13.82;4.82;;;;;;;;;;5073172;28;20056;-69
2021/12/09 00:33:27;;;;;;;11.60;4.90;;;;;;;;;;5073076;28;20056;-69
2021/12/09 00:35:57;;;;;;;11.80;4.32;;;;;;;;;;5073729;28;20063;-69
2021/12/09 00:38:41;;;;;;;11.90;4.72;;;;;;;;;;5074266;28;20044;-69
2021/12/09 00:41:13;;;;;;;12.80;5.00;;;;;;;;;;5076082;28;20117;-69
2021/12/09 00:43:40;;;;;;;11.50;5.07;;;;;;;;;;5075609;28;20044;-68
2021/12/09 00:46:07;;;;;;;11.38;4.75;;;;;;;;;;5076436;28;20040;-68
2021/12/09 00:48:34;;;;;;;9.32;4.80;;;;;;;;;;5075968;28;20048;-68
2021/12/09 00:51:03;;;;;;;9.45;4.57;;;;;;;;;;5073908;28;20139;-68
2021/12/09 00:53:29;;;;;;;11.80;4.90;;;;;;;;;;5076071;28;20690;-69
2021/12/09 00:55:56;;;;;;;13.35;5.28;;;;;;;;;;5075741;28;21320;-69
2021/12/09 00:58:22;;;;;;;9.98;4.50;;;;;;;;;;5075296;28;20064;-68
2021/12/09 01:00:48;;;;;;;11.35;4.88;;;;;;;;;;5075569;28;20044;-69
2021/12/09 01:03:15;;;;;;;9.68;4.80;;;;;;;;;;5075761;28;20537;-69
2021/12/09 01:05:44;;;;;;;7.82;4.53;;;;;;;;;;5074981;28;20606;-68
2021/12/09 01:08:30;;;;;;;11.88;4.55;;;;;;;;;;5076019;28;20048;-69
2021/12/09 01:10:56;;;;;;;14.02;4.90;;;;;;;;;;5075069;28;20048;-68
2021/12/09 01:13:22;;;;;;;17.35;5.05;;;;;;;;;;5074696;28;20059;-68
2021/12/09 01:15:49;;;;;;;12.00;5.95;;;;;;;;;;5074078;28;20113;-68
2021/12/09 01:18:15;;;;;;;12.52;5.07;;;;;;;;;;5075030;28;20044;-68
2021/12/09 01:20:41;;;;;;;13.57;5.88;;;;;;;;;;5074620;28;20044;-68
2021/12/09 01:23:08;;;;;;;15.63;5.28;;;;;;;;;;5075781;28;20052;-68
2021/12/09 01:25:38;;;;;;;20.88;5.80;;;;;;;;;;5074688;28;20055;-68
2021/12/09 01:28:06;;;;;;;10.23;4.75;;;;;;;;;;5074693;28;20106;-68
2021/12/09 01:30:32;;;;;;;9.93;4.88;;;;;;;;;;5076832;28;20056;-68
2021/12/09 01:32:59;;;;;;;10.38;4.50;;;;;;;;;;5078623;28;20060;-68
2021/12/09 01:35:27;;;;;;;9.02;4.47;;;;;;;;;;5078253;28;20396;-68
2021/12/09 01:37:57;;;;;;;15.02;4.95;;;;;;;;;;5078338;28;20051;-70
2021/12/09 01:40:24;;;;;;;10.10;4.55;;;;;;;;;;5078107;28;20055;-69
2021/12/09 01:42:51;;;;;;;9.63;4.40;;;;;;;;;;5078489;28;20461;-69
2021/12/09 01:45:17;;;;;;;11.57;5.35;;;;;;;;;;5078716;28;20048;-69
2021/12/09 01:47:44;;;;;;;10.73;5.03;;;;;;;;;;5081992;28;20048;-69
2021/12/09 01:50:12;;;;;;;10.05;5.70;;;;;;;;;;5064573;28;20044;-68
2021/12/09 01:52:38;;;;;;;10.68;4.22;;;;;;;;;;5066634;28;20202;-68
2021/12/09 01:55:06;;;;;;;10.20;5.25;;;;;;;;;;5065175;28;20056;-69
2021/12/09 01:57:32;;;;;;;13.68;5.60;;;;;;;;;;5066502;28;20048;-68
2021/12/09 01:59:58;;;;;;;10.68;4.45;;;;;;;;;;5066882;28;20044;-69
2021/12/09 02:02:25;;;;;;;11.00;4.75;;;;;;;;;;5066079;28;20055;-68
2021/12/09 02:05:01;;;;;;;12.10;4.72;;;;;;;;;;5066404;28;20052;-69
2021/12/09 02:07:27;;;;;;;14.68;5.13;;;;;;;;;;5065902;28;20079;-68
2021/12/09 02:09:53;;;;;;;9.60;4.95;;;;;;;;;;5065965;28;20056;-68
2021/12/09 02:12:20;;;;;;;10.38;5.43;;;;;;;;;;5066879;28;20044;-68
2021/12/09 02:14:47;;;;;;;9.75;4.47;;;;;;;;;;5065628;28;20048;-68
2021/12/09 02:17:13;;;;;;;13.40;4.55;;;;;;;;;;5066421;28;20146;-68
2021/12/09 02:19:41;;;;;;;12.60;4.90;;;;;;;;;;5080658;28;20087;-68
2021/12/09 02:22:09;;;;;;;9.73;4.63;;;;;;;;;;5081802;28;20044;-68
2021/12/09 02:24:36;;;;;;;11.27;5.07;;;;;;;;;;5065172;28;20589;-68
2021/12/09 02:27:02;;;;;;;9.55;4.03;;;;;;;;;;5065759;28;20063;-68
2021/12/09 02:29:29;;;;;;;12.45;4.70;;;;;;;;;;5066363;28;20057;-68
2021/12/09 02:31:57;;;;;;;11.32;4.32;;;;;;;;;;5068164;28;20159;-68
2021/12/09 02:34:24;;;;;;;12.85;5.32;;;;;;;;;;5079146;28;20049;-68
2021/12/09 02:36:51;;;;;;;11.18;5.10;;;;;;;;;;5077663;28;20052;-68
2021/12/09 02:39:18;;;;;;;13.80;4.00;;;;;;;;;;5082198;28;20874;-68
2021/12/09 02:41:45;;;;;;;10.65;4.05;;;;;;;;;;5072107;28;20194;-68
2021/12/09 02:44:12;;;;;;;13.55;4.75;;;;;;;;;;5079476;28;20058;-68
2021/12/09 02:46:39;;;;;;;12.77;4.78;;;;;;;;;;5080931;28;20397;-68
2021/12/09 02:49:13;;;;;;;10.07;4.32;;;;;;;;;;5078848;28;20048;-68
2021/12/09 02:51:40;;;;;;;8.13;4.75;;;;;;;;;;5077602;28;20151;-68
2021/12/09 02:54:07;;;;;;;10.43;4.93;;;;;;;;;;5071550;28;20048;-68
2021/12/09 02:56:34;;;;;;;9.18;4.88;;;;;;;;;;5074585;28;20048;-68
2021/12/09 02:59:01;;;;;;;9.90;4.72;;;;;;;;;;5076037;28;20052;-68
2021/12/09 03:01:33;;;;;;;13.73;5.10;;;;;;;;;;5072725;28;20044;-68
2021/12/09 03:04:03;;;;;;;12.27;4.55;;;;;;;;;;5071231;28;20040;-68
2021/12/09 03:06:34;;;;;;;11.77;5.13;;;;;;;;;;5072371;28;20173;-68
2021/12/09 03:09:03;;;;;;;12.23;4.53;;;;;;;;;;5078118;28;20052;-68
2021/12/09 03:11:30;;;;;;;11.65;4.55;;;;;;;;;;5070047;28;20131;-68
2021/12/09 03:13:57;;;;;;;13.52;5.55;;;;;;;;;;5072170;28;20055;-69
2021/12/09 03:16:23;;;;;;;10.70;5.18;;;;;;;;;;5069572;28;20075;-68
2021/12/09 03:18:55;;;;;;;15.30;5.00;;;;;;;;;;5076229;28;20052;-68
2021/12/09 03:21:25;;;;;;;11.38;5.00;;;;;;;;;;5075846;28;20048;-68
2021/12/09 03:23:53;;;;;;;11.13;4.32;;;;;;;;;;5075877;28;20117;-68
2021/12/09 03:26:25;;;;;;;8.38;4.47;;;;;;;;;;5077459;28;20147;-68
2021/12/09 03:28:52;;;;;;;9.25;5.07;;;;;;;;;;5076147;28;20059;-68
2021/12/09 03:31:19;;;;;;;10.35;4.82;;;;;;;;;;5075975;28;20052;-68
2021/12/09 03:33:45;;;;;;;12.45;4.90;;;;;;;;;;5075419;28;20039;-68
2021/12/09 03:36:11;;;;;;;8.23;4.07;;;;;;;;;;5074386;28;20618;-68
2021/12/09 03:38:39;;;;;;;14.40;5.00;;;;;;;;;;5067706;28;20056;-68
2021/12/09 03:41:06;;;;;;;12.10;4.78;;;;;;;;;;5064833;28;20044;-68
2021/12/09 03:43:33;;;;;;;12.18;4.97;;;;;;;;;;5076905;28;20051;-68
2021/12/09 03:46:00;;;;;;;12.00;5.03;;;;;;;;;;5066374;28;20044;-68
2021/12/09 03:48:27;;;;;;;11.10;5.22;;;;;;;;;;5088599;28;20052;-68
2021/12/09 03:50:53;;;;;;;9.20;4.55;;;;;;;;;;5061405;28;20052;-68
2021/12/09 03:53:20;;;;;;;10.00;4.30;;;;;;;;;;5045014;28;20461;-68
2021/12/09 03:55:46;;;;;;;9.60;4.43;;;;;;;;;;5062411;28;20044;-68
2021/12/09 03:58:13;;;;;;;10.35;4.70;;;;;;;;;;5066235;28;20060;-68
2021/12/09 04:00:40;;;;;;;11.77;4.85;;;;;;;;;;5065269;28;20044;-68
2021/12/09 04:03:07;;;;;;;8.40;4.90;;;;;;;;;;5069168;28;20044;-68
2021/12/09 04:05:33;;;;;;;9.35;4.85;;;;;;;;;;5077695;28;20044;-68
2021/12/09 04:08:21;;;;;;;7.30;4.05;;;;;;;;;;5065027;28;20051;-68
2021/12/09 04:10:49;;;;;;;13.10;4.55;;;;;;;;;;5062851;28;20062;-67
2021/12/09 04:13:16;;;;;;;9.23;4.57;;;;;;;;;;5063298;28;20063;-68
2021/12/09 04:15:43;;;;;;;8.20;4.15;;;;;;;;;;5062543;28;20056;-68
2021/12/09 04:18:09;;;;;;;11.35;4.50;;;;;;;;;;5063007;28;20065;-68
2021/12/09 04:20:36;;;;;;;13.10;4.57;;;;;;;;;;5062321;28;20067;-68
2021/12/09 04:23:03;;;;;;;9.30;4.20;;;;;;;;;;5062766;28;20306;-68
2021/12/09 04:25:30;;;;;;;7.65;4.13;;;;;;;;;;5063123;28;20565;-68
2021/12/09 04:27:56;;;;;;;10.48;4.63;;;;;;;;;;5062228;28;20052;-68
2021/12/09 04:30:24;;;;;;;7.43;4.18;;;;;;;;;;5063612;28;20680;-68
2021/12/09 04:32:52;;;;;;;9.45;4.50;;;;;;;;;;5062990;28;20083;-68
2021/12/09 04:35:19;;;;;;;9.95;4.70;;;;;;;;;;5063270;28;20056;-68
2021/12/09 04:37:47;;;;;;;8.73;4.40;;;;;;;;;;5062813;28;20049;-67
2021/12/09 04:40:13;;;;;;;9.67;4.47;;;;;;;;;;5063099;28;20059;-68
2021/12/09 04:42:40;;;;;;;11.18;4.65;;;;;;;;;;5043969;28;20292;-68
2021/12/09 04:45:08;;;;;;;11.90;4.72;;;;;;;;;;5044169;28;20159;-68
2021/12/09 04:47:34;;;;;;;8.35;4.60;;;;;;;;;;5062488;28;20075;-67
2021/12/09 04:50:01;;;;;;;11.18;4.43;;;;;;;;;;5062672;28;20084;-68
2021/12/09 04:52:27;;;;;;;9.20;5.00;;;;;;;;;;5062469;28;20420;-68
2021/12/09 04:54:54;;;;;;;9.65;4.93;;;;;;;;;;5062127;28;20057;-68
2021/12/09 04:57:20;;;;;;;15.45;5.50;;;;;;;;;;5062202;28;20056;-68
2021/12/09 04:59:48;;;;;;;15.52;5.00;;;;;;;;;;5070672;28;20054;-68
2021/12/09 05:02:28;;;;;;;10.05;4.53;;;;;;;;;;5062547;28;20588;-68
2021/12/09 05:04:54;;;;;;;8.85;4.53;;;;;;;;;;5065021;28;20052;-67
2021/12/09 05:07:21;;;;;;;7.35;4.28;;;;;;;;;;5066509;28;20048;-67
2021/12/09 05:09:51;;;;;;;11.10;4.93;;;;;;;;;;5066594;28;20441;-68
2021/12/09 05:12:21;;;;;;;8.98;4.30;;;;;;;;;;5066242;28;20052;-68
2021/12/09 05:14:47;;;;;;;9.88;4.65;;;;;;;;;;5048708;28;20496;-68
2021/12/09 05:17:15;;;;;;;10.63;4.18;;;;;;;;;;5066611;28;20080;-68
2021/12/09 05:19:42;;;;;;;13.23;4.63;;;;;;;;;;5065717;28;20119;-68
2021/12/09 05:22:09;;;;;;;11.80;4.85;;;;;;;;;;5066452;28;20055;-68
2021/12/09 05:24:37;;;;;;;11.15;4.53;;;;;;;;;;5066178;28;20283;-68
2021/12/09 05:27:05;;;;;;;9.63;4.18;;;;;;;;;;5067011;28;20052;-68
2021/12/09 05:29:38;;;;;;;9.88;4.85;;;;;;;;;;5066554;28;20056;-68
2021/12/09 05:32:13;;;;;;;10.63;4.43;;;;;;;;;;5066415;28;20076;-68
2021/12/09 05:34:44;;;;;;;12.18;4.68;;;;;;;;;;5066096;28;20048;-68
2021/12/09 05:37:21;;;;;;;10.27;4.22;;;;;;;;;;5066299;28;20051;-68
2021/12/09 05:39:48;;;;;;;7.80;3.85;;;;;;;;;;5066146;28;20044;-67
2021/12/09 05:42:16;;;;;;;14.60;5.00;;;;;;;;;;5066240;28;20608;-68
2021/12/09 05:44:42;;;;;;;8.10;4.03;;;;;;;;;;5065523;28;21596;-68
2021/12/09 05:47:09;;;;;;;15.40;4.18;;;;;;;;;;5066521;28;20048;-68
2021/12/09 05:49:37;;;;;;;10.07;4.80;;;;;;;;;;5065780;28;20159;-68
2021/12/09 05:52:04;;;;;;;6.40;3.50;;;;;;;;;;5064333;28;20049;-68
2021/12/09 05:54:30;;;;;;;13.65;4.70;;;;;;;;;;5066417;28;20050;-67
2021/12/09 05:56:58;;;;;;;12.45;4.00;;;;;;;;;;5065437;28;20460;-68
2021/12/09 05:59:25;;;;;;;9.88;3.90;;;;;;;;;;5082560;28;20132;-68
2021/12/09 06:01:51;;;;;;;12.77;4.03;;;;;;;;;;5068892;28;20040;-68
2021/12/09 06:04:17;;;;;;;11.25;3.58;;;;;;;;;;5078379;28;20067;-68
2021/12/09 06:06:44;;;;;;;13.45;3.85;;;;;;;;;;5075111;28;20036;-68
2021/12/09 06:09:11;;;;;;;8.52;3.85;;;;;;;;;;5073904;28;20138;-68
2021/12/09 06:11:41;;;;;;;10.43;3.50;;;;;;;;;;5071605;28;20044;-68
2021/12/09 06:14:08;;;;;;;13.38;3.88;;;;;;;;;;5065627;28;20060;-68
2021/12/09 06:16:35;;;;;;;8.20;3.60;;;;;;;;;;5064899;28;20040;-68
2021/12/09 06:19:03;;;;;;;11.35;3.53;;;;;;;;;;5064738;28;20044;-68
2021/12/09 06:21:29;;;;;;;12.20;4.43;;;;;;;;;;5073764;28;20055;-69
2021/12/09 06:23:56;;;;;;;12.43;3.08;;;;;;;;;;5077590;28;20048;-68
2021/12/09 06:26:22;;;;;;;7.40;3.28;;;;;;;;;;5086039;28;20063;-68
2021/12/09 06:28:49;;;;;;;12.13;4.10;;;;;;;;;;5067005;28;20382;-68
2021/12/09 06:31:15;;;;;;;14.65;4.13;;;;;;;;;;5051282;28;20044;-68
2021/12/09 06:33:42;;;;;;;13.75;3.63;;;;;;;;;;5074755;28;21005;-68
2021/12/09 06:36:08;;;;;;;13.27;3.28;;;;;;;;;;5072866;28;20066;-68
2021/12/09 06:38:35;;;;;;;8.25;3.33;;;;;;;;;;5073711;28;20052;-68
2021/12/09 06:41:02;;;;;;;12.50;4.22;;;;;;;;;;5055209;28;20060;-68
2021/12/09 06:43:28;;;;;;;10.90;3.08;;;;;;;;;;5073476;28;20389;-68
2021/12/09 06:45:55;;;;;;;6.80;3.08;;;;;;;;;;5065323;28;20405;-68
2021/12/09 06:48:22;;;;;;;8.52;3.20;;;;;;;;;;5065657;28;20460;-68
2021/12/09 06:50:49;;;;;;;7.50;3.28;;;;;;;;;;5061620;28;20051;-68
2021/12/09 06:53:16;;;;;;;8.90;4.03;;;;;;;;;;5067419;28;20048;-68
2021/12/09 06:55:43;;;;;;;12.27;3.55;;;;;;;;;;5075677;28;20060;-69
2021/12/09 06:58:10;;;;;;;8.30;3.65;;;;;;;;;;5075831;28;20048;-68
2021/12/09 07:00:41;;;;;;;11.15;3.42;;;;;;;;;;5074210;28;20054;-68
2021/12/09 07:03:09;;;;;;;15.38;5.00;;;;;;;;;;5077199;28;20052;-69
2021/12/09 07:05:36;;;;;;;14.20;3.95;;;;;;;;;;5079163;28;20481;-69
2021/12/09 07:08:03;;;;;;;12.20;3.95;;;;;;;;;;5064955;28;20094;-69
2021/12/09 07:10:30;;;;;;;12.30;4.35;;;;;;;;;;5065353;28;20063;-69
2021/12/09 07:12:56;;;;;;;12.52;4.00;;;;;;;;;;5065462;28;20053;-69
2021/12/09 07:15:23;;;;;;;9.68;3.88;;;;;;;;;;5065324;28;20047;-69
2021/12/09 07:17:49;;;;;;;12.02;3.63;;;;;;;;;;5064967;28;20474;-69
2021/12/09 07:20:18;;;;;;;10.70;3.53;;;;;;;;;;5065429;28;20041;-68
2021/12/09 07:22:46;;;;;;;11.63;3.92;;;;;;;;;;5063899;28;20048;-68
2021/12/09 07:25:12;;;;;;;11.85;4.45;;;;;;;;;;5064547;28;20048;-69
2021/12/09 07:27:38;;;;;;;12.18;3.85;;;;;;;;;;5063556;28;20056;-69
2021/12/09 07:30:06;;;;;;;12.43;3.60;;;;;;;;;;5064830;28;20049;-68
2021/12/09 07:32:32;;;;;;;8.02;3.33;;;;;;;;;;5063993;28;20122;-68
2021/12/09 07:34:59;;;;;;;12.65;3.75;;;;;;;;;;5064596;28;20056;-68
2021/12/09 07:37:25;;;;;;;9.10;3.78;;;;;;;;;;5064312;28;20829;-69
2021/12/09 07:39:52;;;;;;;7.30;3.05;;;;;;;;;;5063699;28;20309;-69
2021/12/09 07:42:18;;;;;;;13.20;3.88;;;;;;;;;;5064538;28;20062;-68
2021/12/09 07:44:45;;;;;;;9.48;3.28;;;;;;;;;;5063930;28;20048;-68
2021/12/09 07:47:11;;;;;;;9.68;3.13;;;;;;;;;;5063946;28;20048;-69
2021/12/09 07:49:37;;;;;;;10.77;3.75;;;;;;;;;;5063659;28;20079;-69
2021/12/09 07:52:04;;;;;;;10.00;3.67;;;;;;;;;;5062134;28;20190;-68
2021/12/09 07:54:31;;;;;;;12.98;3.85;;;;;;;;;;5063853;28;20056;-69
2021/12/09 07:56:57;;;;;;;10.02;3.60;;;;;;;;;;5076367;28;20052;-70
2021/12/09 07:59:23;;;;;;;9.98;3.17;;;;;;;;;;5087399;28;20048;-69
2021/12/09 08:01:50;;;;;;;14.43;3.83;;;;;;;;;;5063908;28;20044;-69
2021/12/09 08:04:17;;;;;;;15.95;4.10;;;;;;;;;;5064260;28;20106;-71
2021/12/09 08:06:43;;;;;;;11.93;4.05;;;;;;;;;;5065710;28;20358;-69
2021/12/09 08:09:10;;;;;;;10.35;3.92;;;;;;;;;;5066162;28;20044;-69
2021/12/09 08:11:37;;;;;;;13.18;4.20;;;;;;;;;;5062072;28;20047;-69
2021/12/09 08:14:04;;;;;;;11.80;3.95;;;;;;;;;;5078689;28;20048;-70
2021/12/09 08:16:33;;;;;;;8.95;3.78;;;;;;;;;;5085458;28;20554;-70
2021/12/09 08:19:00;;;;;;;9.00;3.78;;;;;;;;;;5078211;28;20051;-70
2021/12/09 08:21:27;;;;;;;10.23;4.05;;;;;;;;;;5081230;28;20040;-70
2021/12/09 08:23:53;;;;;;;12.38;3.75;;;;;;;;;;5082025;28;20047;-69
2021/12/09 08:26:20;;;;;;;8.75;3.55;;;;;;;;;;5084557;28;20048;-69
2021/12/09 08:28:47;;;;;;;13.63;4.07;;;;;;;;;;5074553;28;20044;-69
2021/12/09 08:31:13;;;;;;;9.70;4.07;;;;;;;;;;5082465;28;20047;-69
2021/12/09 08:33:40;;;;;;;16.65;4.70;;;;;;;;;;5074441;28;20059;-69
2021/12/09 08:36:26;;;;;;;14.48;4.07;;;;;;;;;;5077648;28;20044;-70
2021/12/09 08:38:53;;;;;;;14.93;4.05;;;;;;;;;;5082356;28;20433;-69
2021/12/09 08:41:19;;;;;;;7.28;3.08;;;;;;;;;;5086530;28;20691;-69
2021/12/09 08:43:46;;;;;;;10.32;3.53;;;;;;;;;;5086421;28;20055;-70
2021/12/09 08:46:15;;;;;;;12.73;4.22;;;;;;;;;;5080488;28;20048;-69
2021/12/09 08:48:41;;;;;;;14.20;4.45;;;;;;;;;;5082789;28;20408;-69
2021/12/09 08:51:08;;;;;;;11.77;3.28;;;;;;;;;;5078471;28;20114;-69
2021/12/09 08:53:34;;;;;;;11.63;3.92;;;;;;;;;;5080343;28;20528;-69
2021/12/09 08:56:02;;;;;;;15.20;4.25;;;;;;;;;;5083609;28;20481;-70
2021/12/09 08:58:30;;;;;;;8.23;3.65;;;;;;;;;;5087604;28;20059;-70
2021/12/09 09:00:58;;;;;;;10.18;3.45;;;;;;;;;;5088867;28;20051;-69
2021/12/09 09:03:26;;;;;;;11.13;4.72;;;;;;;;;;5089432;28;20089;-69
2021/12/09 09:05:53;;;;;;;9.25;4.35;;;;;;;;;;5088364;28;20548;-69
2021/12/09 09:08:19;;;;;;;14.68;4.30;;;;;;;;;;5089957;28;20044;-70
2021/12/09 09:10:46;;;;;;;6.35;3.72;;;;;;;;;;5087817;28;21307;-69
2021/12/09 09:13:13;;;;;;;12.10;4.70;;;;;;;;;;5089081;28;20052;-69
2021/12/09 09:15:40;;;;;;;18.27;4.30;;;;;;;;;;5083898;28;20420;-69
2021/12/09 09:18:07;;;;;;;11.00;3.88;;;;;;;;;;5085097;28;20183;-69
2021/12/09 09:20:38;;;;;;;9.18;4.10;;;;;;;;;;5087994;28;20767;-69
2021/12/09 09:23:07;;;;;;;8.18;4.05;;;;;;;;;;5085593;28;20561;-69
2021/12/09 09:25:34;;;;;;;14.18;4.55;;;;;;;;;;5083092;28;20504;-69
2021/12/09 09:28:01;;;;;;;12.73;3.70;;;;;;;;;;5082436;28;20052;-69
2021/12/09 09:30:34;;;;;;;10.88;4.05;;;;;;;;;;5086920;28;20404;-69
2021/12/09 09:33:02;;;;;;;10.15;4.03;;;;;;;;;;5087817;28;20052;-69
2021/12/09 09:35:28;;;;;;;9.60;4.50;;;;;;;;;;5082949;28;20051;-70
2021/12/09 09:37:54;;;;;;;10.48;4.40;;;;;;;;;;5087925;28;20044;-69
2021/12/09 09:40:27;;;;;;;12.98;4.70;;;;;;;;;;5083856;28;20189;-69
2021/12/09 09:43:02;;;;;;;13.65;5.03;;;;;;;;;;5079003;28;20051;-69
2021/12/09 09:45:29;;;;;;;10.00;4.22;;;;;;;;;;5079871;28;20063;-69
2021/12/09 09:47:55;;;;;;;14.20;4.40;;;;;;;;;;5080639;28;20079;-69
2021/12/09 09:50:22;;;;;;;13.18;4.38;;;;;;;;;;5078471;28;20162;-69
2021/12/09 09:52:48;;;;;;;14.65;5.40;;;;;;;;;;5084016;28;20048;-69
2021/12/09 09:55:20;;;;;;;9.48;3.92;;;;;;;;;;5083586;28;20303;-69
2021/12/09 09:57:47;;;;;;;18.98;4.32;;;;;;;;;;5086992;28;20046;-69
2021/12/09 10:00:15;;;;;;;8.30;4.70;;;;;;;;;;5087348;28;20542;-69
2021/12/09 10:02:41;;;;;;;11.55;4.35;;;;;;;;;;5085697;28;20162;-69
2021/12/09 10:05:08;;;;;;;12.68;5.10;;;;;;;;;;5078463;28;20063;-69
2021/12/09 10:07:35;;;;;;;11.48;5.03;;;;;;;;;;5086555;28;20687;-69
2021/12/09 10:10:07;;;;;;;11.55;4.65;;;;;;;;;;5080333;28;20897;-69
2021/12/09 10:12:33;;;;;;;9.93;4.78;;;;;;;;;;5082900;28;20079;-69
2021/12/09 10:15:00;;;;;;;11.00;4.90;;;;;;;;;;5085025;28;20047;-69
2021/12/09 10:17:27;;;;;;;11.55;4.50;;;;;;;;;;5081968;28;20051;-70
2021/12/09 10:20:07;;;;;;;8.38;4.07;;;;;;;;;;5080734;28;20138;-69
2021/12/09 10:22:35;;;;;;;14.18;4.90;;;;;;;;;;5083994;28;20048;-69
2021/12/09 10:25:14;;;;;;;9.70;4.68;;;;;;;;;;5083810;28;20055;-69
2021/12/09 10:27:44;;;;;;;13.15;4.97;;;;;;;;;;5081750;28;20044;-69
2021/12/09 10:30:16;;;;;;;14.20;4.93;;;;;;;;;;5082930;28;20048;-69
2021/12/09 10:32:44;;;;;;;13.05;5.20;;;;;;;;;;5082173;28;20531;-69
2021/12/09 10:35:11;;;;;;;10.63;5.35;;;;;;;;;;5087028;28;20059;-69
2021/12/09 10:37:38;;;;;;;13.90;4.93;;;;;;;;;;5086183;28;20123;-69
2021/12/09 10:40:05;;;;;;;14.50;4.85;;;;;;;;;;5087501;28;20047;-69
2021/12/09 10:42:37;;;;;;;10.52;5.10;;;;;;;;;;5081862;28;20052;-69
2021/12/09 10:45:04;;;;;;;12.90;4.53;;;;;;;;;;5073999;28;20044;-70
2021/12/09 10:47:47;;;;;;;12.13;5.40;;;;;;;;;;5085898;28;20507;-70
2021/12/09 10:50:35;;;;;;;15.95;5.47;;;;;;;;;;5084107;28;20048;-69
2021/12/09 10:53:28;;;;;;;15.02;5.97;;;;;;;;;;5086119;28;20129;-69
2021/12/09 10:55:55;;;;;;;14.13;6.32;;;;;;;;;;5082593;28;20552;-69
2021/12/09 10:58:22;;;;;;;17.60;5.35;;;;;;;;;;5082899;28;20050;-69
2021/12/09 11:00:57;;;;;;;13.93;6.28;;;;;;;;;;5078119;28;20298;-69
2021/12/09 11:03:24;;;;;;;16.48;6.43;;;;;;;;;;5081647;28;20517;-68
2021/12/09 11:05:58;;;;;;;17.48;6.88;;;;;;;;;;5079838;28;20505;-68
2021/12/09 11:08:28;;;;;;;22.33;6.43;;;;;;;;;;5076494;28;20052;-69
2021/12/09 11:11:06;;;;;;;12.20;6.03;;;;;;;;;;5077617;28;20048;-69
2021/12/09 11:13:36;;;;;;;18.02;6.38;;;;;;;;;;5077934;28;20055;-69
2021/12/09 11:16:05;;;;;;;16.35;6.63;;;;;;;;;;5076747;28;20048;-69
2021/12/09 11:18:41;;;;;;;15.10;7.35;;;;;;;;;;5077387;28;20048;-68
2021/12/09 11:21:14;;;;;;;16.23;6.55;;;;;;;;;;5078109;28;20444;-69
2021/12/09 11:23:43;;;;;;;20.75;7.97;;;;;;;;;;5082077;28;20150;-69
2021/12/09 11:26:24;;;;;;;15.25;6.97;;;;;;;;;;5086954;28;20395;-70
2021/12/09 11:28:58;;;;;;;16.50;7.35;;;;;;;;;;5082699;28;20302;-69
2021/12/09 11:31:29;;;;;;;18.35;7.65;;;;;;;;;;5084676;28;20052;-69
2021/12/09 11:33:57;;;;;;;15.35;7.15;;;;;;;;;;5086333;28;20047;-69
2021/12/09 11:36:43;;;;;;;16.45;7.53;;;;;;;;;;5085768;28;20177;-69
2021/12/09 11:39:15;;;;;;;15.27;7.18;;;;;;;;;;5084380;28;20508;-69
2021/12/09 11:41:42;;;;;;;17.98;7.65;;;;;;;;;;5081911;28;20044;-69
2021/12/09 11:44:09;;;;;;;13.90;8.18;;;;;;;;;;5080221;28;20044;-69
2021/12/09 11:46:37;;;;;;;19.52;7.70;;;;;;;;;;5076248;28;20161;-68
2021/12/09 11:49:04;;;;;;;21.83;8.80;;;;;;;;;;5077319;28;20059;-69
2021/12/09 11:51:30;;;;;;;18.23;8.55;;;;;;;;;;5076294;28;20051;-69
2021/12/09 11:54:00;;;;;;;18.95;8.63;;;;;;;;;;5079148;28;20752;-69
2021/12/09 12:07:53;;;;;;;15.95;7.68;;;;;;;;;;5075734;28;20048;-69
2021/12/09 12:13:42;;;;;;;14.82;7.15;;;;;;;;;;5080024;28;20053;-69
2021/12/09 12:16:42;;;;;;;16.63;8.05;;;;;;;;;;5083403;28;20047;-69
2021/12/09 12:19:27;;;;;;;21.88;8.75;;;;;;;;;;5076665;28;20055;-69
2021/12/09 12:25:03;;;;;;;12.13;6.45;;;;;;;;;;5076189;28;20063;-69
2021/12/09 12:27:41;;;;;;;12.68;6.22;;;;;;;;;;5076186;28;20059;-69
2021/12/09 12:35:54;;;;;;;11.60;6.57;;;;;;;;;;5066596;28;20056;-69
2021/12/09 12:40:56;;;;;;;13.85;6.85;;;;;;;;;;5075434;28;20044;-69
2021/12/09 12:43:29;;;;;;;14.85;7.05;;;;;;;;;;5076291;28;20043;-70
2021/12/09 12:51:21;;;;;;;13.57;6.88;;;;;;;;;;5073939;28;20048;-69
2021/12/09 12:53:53;;;;;;;10.27;6.65;;;;;;;;;;5076397;28;20893;-69
2021/12/09 12:56:20;;;;;;;12.95;7.30;;;;;;;;;;5076679;28;20408;-69
2021/12/09 12:59:12;;;;;;;15.27;7.55;;;;;;;;;;5077904;28;20439;-69
2021/12/09 13:02:49;;;;;;;13.95;7.57;;;;;;;;;;5084309;28;20048;-69
2021/12/09 13:05:30;;;;;;;13.43;7.55;;;;;;;;;;5076055;28;20537;-69
2021/12/09 13:13:14;;;;;;;11.15;6.85;;;;;;;;;;5075987;28;20055;-69
2021/12/09 13:15:59;;;;;;;11.38;7.47;;;;;;;;;;5074540;28;20580;-69
2021/12/09 13:18:48;;;;;;;16.23;7.90;;;;;;;;;;5081743;28;20052;-69
2021/12/09 13:21:33;;;;;;;16.90;7.72;;;;;;;;;;5083722;28;20048;-69
2021/12/09 13:24:18;;;;;;;13.70;7.55;;;;;;;;;;5078860;28;20059;-69
2021/12/09 13:27:07;;;;;;;15.88;7.90;;;;;;;;;;5079666;28;20051;-69
2021/12/09 13:30:32;;;;;;;13.95;7.68;;;;;;;;;;5079080;28;20052;-69
2021/12/09 13:46:40;;;;;;;11.68;7.75;;;;;;;;;;5083409;28;20058;-69
2021/12/09 13:54:23;;;;;;;14.88;8.02;;;;;;;;;;5080496;28;20051;-69
2021/12/09 13:56:54;;;;;;;10.63;7.03;;;;;;;;;;5078903;28;20811;-69
2021/12/09 13:59:21;;;;;;;13.07;8.40;;;;;;;;;;5082407;28;20063;-69
2021/12/09 14:01:48;;;;;;;13.32;9.00;;;;;;;;;;5081191;28;20044;-69
2021/12/09 14:04:19;;;;;;;17.02;8.75;;;;;;;;;;5084179;28;20040;-69
2021/12/09 14:06:48;;;;;;;15.35;8.50;;;;;;;;;;5068558;28;20062;-69
2021/12/09 14:09:15;;;;;;;12.98;8.25;;;;;;;;;;5086067;28;20060;-69
2021/12/09 14:11:47;;;;;;;16.00;8.82;;;;;;;;;;5078666;28;20173;-69
2021/12/09 14:14:24;;;;;;;15.18;8.27;;;;;;;;;;5086758;28;20049;-69
2021/12/09 14:21:48;;;;;;;11.48;8.35;;;;;;;;;;5073138;28;20054;-69
2021/12/09 14:24:22;;;;;;;13.43;8.07;;;;;;;;;;5089143;28;20044;-69
2021/12/09 14:26:57;;;;;;;15.40;8.35;;;;;;;;;;5087548;28;20368;-69
2021/12/09 14:29:24;;;;;;;14.05;8.15;;;;;;;;;;5087739;28;20052;-69
2021/12/09 14:31:55;;;;;;;14.23;8.50;;;;;;;;;;5088072;28;20453;-69
2021/12/09 14:34:23;;;;;;;15.38;8.02;;;;;;;;;;5080287;28;20062;-69
2021/12/09 14:36:50;;;;;;;15.57;9.40;;;;;;;;;;5079575;28;20048;-69
2021/12/09 14:39:18;;;;;;;13.57;9.00;;;;;;;;;;5085637;28;20027;-69
2021/12/09 14:41:45;;;;;;;13.18;8.23;;;;;;;;;;5080906;28;20048;-69
2021/12/09 14:44:12;;;;;;;13.88;8.88;;;;;;;;;;5084883;28;20049;-69
2021/12/09 14:46:40;;;;;;;15.55;8.13;;;;;;;;;;5086155;28;20044;-69
2021/12/09 14:49:16;;;;;;;15.20;8.57;;;;;;;;;;5084826;28;20056;-69
2021/12/09 14:51:43;;;;;;;13.82;8.10;;;;;;;;;;5078917;28;20047;-69
2021/12/09 14:54:10;;;;;;;13.63;8.77;;;;;;;;;;5078717;28;20048;-69
2021/12/09 14:56:48;;;;;;;14.18;8.27;;;;;;;;;;5083214;28;20052;-70
2021/12/09 14:59:17;;;;;;;14.55;8.50;;;;;;;;;;5086458;28;20044;-69
2021/12/09 15:01:45;;;;;;;16.65;9.60;;;;;;;;;;5085607;28;20048;-69
2021/12/09 15:04:18;;;;;;;15.97;8.97;;;;;;;;;;5086108;28;21196;-69
2021/12/09 15:06:54;;;;;;;18.23;10.10;;;;;;;;;;5086818;28;20326;-69
2021/12/09 15:09:21;;;;;;;15.32;9.93;;;;;;;;;;5086374;28;20060;-70
2021/12/09 15:11:49;;;;;;;14.73;10.18;;;;;;;;;;5086281;28;20507;-70
2021/12/09 15:14:17;;;;;;;16.38;10.73;;;;;;;;;;5087641;28;20654;-69
2021/12/09 15:16:44;;;;;;;13.82;9.98;;;;;;;;;;5073717;28;20060;-69
2021/12/09 15:19:15;;;;;;;19.38;10.05;;;;;;;;;;5083048;28;20035;-69
2021/12/09 15:21:41;;;;;;;16.77;9.35;;;;;;;;;;5079322;28;20390;-69
2021/12/09 15:24:11;;;;;;;17.83;11.13;;;;;;;;;;5080611;28;20048;-69
2021/12/09 15:26:40;;;;;;;14.60;10.65;;;;;;;;;;5080789;28;20162;-69
2021/12/09 15:29:14;;;;;;;19.75;11.25;;;;;;;;;;5077918;28;20044;-69
2021/12/09 15:31:42;;;;;;;21.05;10.85;;;;;;;;;;5078256;28;20055;-70
2021/12/09 15:34:12;;;;;;;17.02;11.20;;;;;;;;;;5085835;28;20048;-70
2021/12/09 15:36:39;;;;;;;16.38;10.85;;;;;;;;;;5084324;28;20615;-69
2021/12/09 15:39:07;;;;;;;17.73;11.85;;;;;;;;;;5085654;28;20138;-69
2021/12/09 15:41:34;;;;;;;17.95;10.82;;;;;;;;;;5086737;28;20482;-70
2021/12/09 15:44:03;;;;;;;15.30;10.18;;;;;;;;;;5085492;28;20056;-69
2021/12/09 15:46:30;;;;;;;20.20;11.00;;;;;;;;;;5086905;28;20130;-69